createdAt,value
2023-03-07T00:00:33.419Z,30.20
2023-03-07T00:03:04.288Z,29.73
2023-03-07T00:05:36.459Z,29.48
2023-03-07T00:08:07.715Z,29.73
2023-03-07T00:10:41.101Z,29.27
2023-03-07T00:13:14.122Z,28.93
2023-03-07T00:15:45.270Z,30.13
2023-03-07T00:18:16.192Z,28.10
2023-03-07T00:20:49.578Z,28.90
2023-03-07T00:23:20.450Z,29.93
2023-03-07T00:26:04.897Z,28.00
2023-03-07T00:28:35.832Z,23.77
2023-03-07T00:31:08.701Z,27.17
2023-03-07T00:33:40.375Z,26.70
2023-03-07T00:36:14.979Z,26.50
2023-03-07T00:38:46.432Z,23.17
2023-03-07T00:41:21.863Z,22.50
2023-03-07T00:43:56.273Z,25.80
2023-03-07T00:46:28.564Z,21.93
2023-03-07T00:48:59.415Z,21.00
2023-03-07T00:51:30.666Z,20.50
2023-03-07T00:54:01.568Z,17.80
2023-03-07T00:56:34.934Z,18.13
2023-03-07T00:59:05.992Z,17.50
2023-03-07T01:01:36.888Z,15.00
2023-03-07T01:04:08.047Z,16.07
2023-03-07T01:06:39.091Z,12.30
2023-03-07T01:09:10.902Z,13.40
2023-03-07T01:11:44.381Z,12.00
2023-03-07T01:14:15.174Z,11.67
2023-03-07T01:16:46.086Z,13.33
2023-03-07T01:19:17.012Z,11.97
2023-03-07T01:21:50.659Z,10.40
2023-03-07T01:24:21.423Z,11.70
2023-03-07T01:26:54.870Z,11.87
2023-03-07T01:29:25.610Z,10.73
2023-03-07T01:31:56.452Z,9.83
2023-03-07T01:34:33.503Z,9.50
2023-03-07T01:37:04.284Z,10.50
2023-03-07T01:39:35.057Z,8.70
2023-03-07T01:42:08.865Z,9.93
2023-03-07T01:45:01.794Z,9.33
2023-03-07T01:47:32.568Z,8.13
2023-03-07T01:50:11.772Z,7.50
2023-03-07T01:52:50.784Z,8.53
2023-03-07T01:55:25.301Z,9.23
2023-03-07T01:58:01.835Z,8.90
2023-03-07T02:00:32.743Z,9.27
2023-03-07T02:03:09.435Z,8.30
2023-03-07T02:05:43.486Z,9.90
2023-03-07T02:08:17.563Z,10.13
2023-03-07T03:42:56.651Z,3.10
2023-03-07T03:45:27.482Z,3.53
2023-03-07T03:47:58.211Z,3.20
2023-03-07T03:50:28.972Z,2.70
2023-03-07T03:52:59.903Z,3.00
2023-03-07T03:55:30.669Z,3.30
2023-03-07T03:58:04.533Z,3.30
2023-03-07T04:00:37.797Z,3.00
2023-03-07T04:03:08.645Z,3.93
2023-03-07T04:05:39.440Z,3.40
2023-03-07T04:08:10.757Z,3.70
2023-03-07T04:10:41.526Z,3.57
2023-03-07T04:13:15.010Z,3.53
2023-03-07T04:15:45.836Z,4.50
2023-03-07T04:18:16.927Z,5.10
2023-03-07T04:20:49.886Z,3.47
2023-03-07T04:23:21.145Z,3.80
2023-03-07T04:25:52.590Z,3.50
2023-03-07T04:28:27.516Z,3.63
2023-03-07T04:30:59.026Z,4.17
2023-03-07T04:33:29.799Z,4.57
2023-03-07T04:36:00.797Z,4.00
2023-03-07T04:38:33.935Z,4.50
2023-03-07T04:41:04.657Z,4.10
2023-03-07T04:43:38.191Z,4.40
2023-03-07T04:46:10.769Z,3.40
2023-03-07T04:48:41.565Z,3.53
2023-03-07T04:51:14.993Z,3.70
2023-03-07T04:53:46.032Z,3.13
2023-03-07T04:56:17.286Z,3.60
2023-03-07T04:58:50.609Z,3.70
2023-03-07T05:01:24.397Z,3.70
2023-03-07T05:03:55.156Z,4.73
2023-03-07T05:06:25.903Z,4.40
2023-03-07T05:08:57.032Z,4.60
2023-03-07T05:11:27.954Z,5.73
2023-03-07T05:14:16.136Z,4.80
2023-03-07T05:16:47.064Z,5.17
2023-03-07T05:19:17.823Z,6.53
2023-03-07T05:21:49.285Z,8.10
2023-03-07T05:24:20.440Z,8.60
2023-03-07T05:26:51.489Z,8.00
2023-03-07T05:29:24.999Z,9.43
2023-03-07T05:31:55.708Z,10.83
2023-03-07T05:34:26.432Z,9.97
2023-03-07T05:36:58.375Z,10.43
2023-03-07T05:39:30.497Z,10.90
2023-03-07T05:42:12.737Z,10.20
2023-03-07T05:44:46.294Z,11.53
2023-03-07T05:47:18.237Z,10.00
2023-03-07T05:49:48.964Z,10.17
2023-03-07T05:52:20.587Z,10.23
2023-03-07T05:54:51.474Z,12.23
2023-03-07T05:57:22.452Z,9.90
2023-03-07T05:59:55.937Z,10.00
2023-03-07T06:02:26.952Z,9.10
2023-03-07T06:05:05.547Z,12.10
2023-03-07T06:07:36.358Z,10.60
2023-03-07T06:10:07.926Z,9.60
2023-03-07T06:12:38.657Z,10.53
2023-03-07T06:15:15.331Z,10.67
2023-03-07T06:17:46.148Z,10.03
2023-03-07T06:20:17.202Z,10.20
2023-03-07T06:22:50.311Z,11.60
2023-03-07T06:25:21.840Z,10.33
2023-03-07T06:27:53.157Z,11.40
2023-03-07T06:30:27.423Z,11.57
2023-03-07T06:32:58.507Z,10.53
2023-03-07T06:35:29.266Z,11.17
2023-03-07T06:38:00.275Z,10.50
2023-03-07T06:40:31.304Z,10.17
2023-03-07T06:43:02.253Z,10.83
2023-03-07T06:45:38.035Z,10.63
2023-03-07T06:48:08.991Z,11.37
2023-03-07T06:50:41.073Z,10.90
2023-03-07T06:53:11.894Z,12.13
2023-03-07T06:55:43.303Z,10.20
2023-03-07T06:58:13.989Z,11.60
2023-03-07T07:00:47.767Z,9.63
2023-03-07T07:03:19.317Z,9.00
2023-03-07T07:05:50.443Z,10.03
2023-03-07T07:08:21.212Z,10.80
2023-03-07T07:10:52.060Z,11.30
2023-03-07T07:13:22.919Z,10.53
2023-03-07T07:15:56.314Z,13.17
2023-03-07T07:18:27.382Z,11.70
2023-03-07T07:20:58.996Z,13.90
2023-03-07T07:23:29.721Z,10.50
2023-03-07T07:26:00.594Z,11.43
2023-03-07T07:28:34.946Z,13.43
2023-03-07T07:31:17.972Z,10.77
2023-03-07T07:33:49.130Z,11.00
2023-03-07T07:36:21.513Z,10.00
2023-03-07T07:38:53.636Z,11.80
2023-03-07T07:41:24.460Z,10.00
2023-03-07T07:43:59.128Z,10.20
2023-03-07T07:46:32.644Z,9.93
2023-03-07T07:49:03.640Z,10.97
2023-03-07T07:51:34.413Z,10.17
2023-03-07T07:54:09.260Z,11.50
2023-03-07T07:56:40.035Z,13.17
2023-03-07T07:59:11.202Z,9.47
2023-03-07T08:01:46.797Z,12.17
2023-03-07T08:04:17.687Z,12.47
2023-03-07T08:06:50.856Z,8.97
2023-03-07T08:09:21.587Z,11.80
2023-03-07T08:11:55.549Z,10.80
2023-03-07T08:14:26.452Z,11.60
2023-03-07T08:17:02.106Z,12.93
2023-03-07T08:19:33.186Z,10.90
2023-03-07T08:22:04.269Z,12.47
2023-03-07T08:24:47.592Z,16.00
2023-03-07T08:27:18.356Z,16.03
2023-03-07T08:29:51.693Z,15.10
2023-03-07T08:32:25.387Z,13.30
2023-03-07T08:34:56.564Z,14.87
2023-03-07T08:37:30.453Z,11.23
2023-03-07T08:40:01.347Z,13.47
2023-03-07T08:42:32.847Z,11.40
2023-03-07T08:45:03.834Z,12.53
2023-03-07T08:47:37.680Z,13.10
2023-03-07T08:50:09.917Z,14.60
2023-03-07T08:52:41.230Z,12.13
2023-03-07T08:55:13.070Z,14.77
2023-03-07T08:57:45.368Z,9.97
2023-03-07T09:00:17.944Z,11.27
2023-03-07T09:02:51.328Z,13.30
2023-03-07T09:05:22.096Z,10.37
2023-03-07T09:07:53.081Z,10.40
2023-03-07T09:10:24.178Z,12.23
2023-03-07T09:12:55.299Z,11.23
2023-03-07T09:15:27.056Z,11.30
2023-03-07T09:18:03.139Z,10.40
2023-03-07T09:20:37.313Z,9.23
2023-03-07T09:23:08.677Z,9.50
2023-03-07T09:25:40.462Z,9.27
2023-03-07T09:28:11.272Z,10.07
2023-03-07T09:30:42.006Z,9.30
2023-03-07T09:33:15.522Z,8.50
2023-03-07T09:35:46.265Z,9.67
2023-03-07T09:38:23.295Z,9.63
2023-03-07T09:41:01.250Z,8.10
2023-03-07T09:43:44.422Z,8.43
2023-03-07T09:46:23.900Z,8.27
2023-03-07T09:49:20.994Z,8.07
2023-03-07T09:52:00.626Z,6.50
2023-03-07T09:54:40.990Z,7.37
2023-03-07T09:57:23.521Z,5.27
2023-03-07T09:59:58.050Z,4.83
2023-03-07T10:02:33.760Z,4.17
2023-03-07T10:05:16.525Z,4.37
2023-03-07T10:07:47.393Z,5.27
2023-03-07T10:10:23.129Z,4.63
2023-03-07T10:13:05.965Z,4.37
2023-03-07T10:15:48.180Z,4.03
2023-03-07T10:18:30.408Z,4.17
2023-03-07T10:21:10.777Z,4.10
2023-03-07T10:24:11.303Z,4.20
2023-03-07T10:26:51.455Z,4.70
2023-03-07T10:29:25.387Z,4.22
2023-03-07T10:31:59.343Z,5.80
2023-03-07T10:34:32.896Z,5.53
2023-03-07T10:37:15.385Z,7.83
2023-03-07T10:39:52.365Z,8.00
2023-03-07T10:42:25.332Z,5.60
2023-03-07T10:44:56.685Z,6.47
2023-03-07T10:47:29.331Z,6.10
2023-03-07T10:50:10.391Z,6.50
2023-03-07T10:52:54.350Z,6.53
2023-03-07T10:55:42.417Z,7.20
2023-03-07T10:58:19.736Z,7.60
2023-03-07T11:01:05.784Z,7.93
2023-03-07T11:03:52.500Z,5.97
2023-03-07T11:06:40.284Z,6.10
2023-03-07T11:09:24.924Z,5.90
2023-03-07T11:11:58.854Z,6.43
2023-03-07T11:14:31.604Z,6.40
2023-03-07T11:17:04.732Z,6.37
2023-03-07T11:19:42.095Z,6.90
2023-03-07T11:22:26.904Z,9.07
2023-03-07T11:25:05.414Z,8.30
2023-03-07T11:27:39.909Z,7.97
2023-03-07T11:30:20.440Z,7.63
2023-03-07T11:33:06.031Z,7.40
2023-03-07T11:35:59.808Z,6.63
2023-03-07T11:38:43.968Z,7.37
2023-03-07T11:41:28.386Z,7.30
2023-03-07T11:44:20.894Z,7.80
2023-03-07T11:47:16.916Z,10.40
2023-03-07T11:49:52.058Z,9.73
2023-03-07T11:52:40.090Z,10.27
2023-03-07T11:55:27.807Z,13.73
2023-03-07T11:58:26.025Z,9.80
2023-03-07T12:01:13.238Z,8.80
2023-03-07T12:04:21.423Z,8.97
2023-03-07T12:07:00.411Z,9.33
2023-03-07T12:09:57.092Z,7.80
2023-03-07T12:12:59.048Z,6.30
2023-03-07T12:15:51.243Z,7.17
2023-03-07T12:18:45.364Z,6.03
2023-03-07T12:21:35.329Z,7.80
2023-03-07T12:24:09.927Z,6.43
2023-03-07T12:26:55.067Z,6.80
2023-03-07T12:29:37.093Z,8.13
2023-03-07T12:32:15.496Z,8.27
2023-03-07T12:34:53.362Z,7.73
2023-03-07T12:37:29.175Z,7.43
2023-03-07T12:40:03.696Z,7.13
2023-03-07T12:42:40.813Z,6.23
2023-03-07T12:45:15.883Z,7.00
2023-03-07T12:47:59.834Z,8.10
2023-03-07T12:50:36.219Z,7.93
2023-03-07T12:53:13.239Z,8.30
2023-03-07T12:55:48.379Z,8.00
2023-03-07T12:58:39.329Z,8.10
2023-03-07T13:01:20.261Z,8.77
2023-03-07T13:04:04.811Z,7.73
2023-03-07T13:06:39.829Z,8.07
2023-03-07T13:09:16.756Z,8.80
2023-03-07T13:12:23.861Z,8.47
2023-03-07T13:14:56.049Z,6.70
2023-03-07T13:17:57.144Z,7.10
2023-03-07T13:20:47.657Z,7.00
2023-03-07T13:23:33.378Z,7.13
2023-03-07T13:26:15.935Z,7.17
2023-03-07T13:28:54.463Z,7.23
2023-03-07T13:31:54.721Z,8.93
2023-03-07T13:34:53.927Z,7.80
2023-03-07T13:38:03.661Z,7.07
2023-03-07T13:40:56.440Z,7.53
2023-03-07T13:44:06.413Z,7.07
2023-03-07T13:47:01.312Z,10.13
2023-03-07T13:49:44.659Z,7.63
2023-03-07T13:52:46.816Z,8.87
2023-03-07T13:55:46.260Z,8.43
2023-03-07T13:58:23.340Z,10.23
2023-03-07T14:01:01.849Z,10.00
2023-03-07T14:03:35.588Z,11.17
2023-03-07T14:06:13.614Z,12.03
2023-03-07T14:08:45.080Z,10.00
2023-03-07T14:11:28.128Z,9.97
2023-03-07T14:14:21.643Z,11.80
2023-03-07T14:17:08.323Z,11.50
2023-03-07T14:20:01.862Z,10.17
2023-03-07T14:22:47.570Z,12.47
2023-03-07T14:25:21.750Z,9.53
2023-03-07T14:28:00.812Z,11.00
2023-03-07T14:30:32.964Z,13.73
2023-03-07T14:33:04.507Z,14.00
2023-03-07T14:35:40.035Z,9.67
2023-03-07T14:38:12.741Z,11.27
2023-03-07T14:40:59.142Z,10.90
2023-03-07T14:43:48.699Z,10.67
2023-03-07T14:46:26.567Z,14.80
2023-03-07T14:49:11.644Z,12.57
2023-03-07T14:51:44.168Z,14.10
2023-03-07T14:54:18.708Z,12.93
2023-03-07T14:56:52.686Z,12.53
2023-03-07T14:59:29.423Z,12.13
2023-03-07T15:02:00.960Z,14.27
2023-03-07T15:04:41.472Z,13.53
2023-03-07T15:07:24.760Z,14.63
2023-03-07T15:09:55.555Z,14.07
2023-03-07T15:12:31.810Z,15.10
2023-03-07T15:15:08.316Z,16.17
2023-03-07T15:17:44.683Z,14.83
2023-03-07T15:20:22.640Z,14.57
2023-03-07T15:23:08.335Z,13.53
2023-03-07T15:25:41.466Z,13.77
2023-03-07T15:28:20.979Z,12.93
2023-03-07T15:30:56.102Z,15.63
2023-03-07T15:33:28.899Z,11.67
2023-03-07T15:36:27.190Z,13.30
2023-03-07T15:39:29.489Z,13.87
2023-03-07T15:42:06.654Z,13.73
2023-03-07T15:44:39.024Z,11.17
2023-03-07T15:47:19.543Z,16.77
2023-03-07T15:49:53.049Z,20.13
2023-03-07T15:52:29.343Z,17.83
2023-03-07T15:55:01.704Z,18.13
2023-03-07T15:57:36.331Z,22.00
2023-03-07T16:00:11.440Z,18.10
2023-03-07T16:02:54.463Z,14.90
2023-03-07T16:05:44.516Z,20.90
2023-03-07T16:08:21.326Z,17.67
2023-03-07T16:10:56.591Z,13.70
2023-03-07T16:13:32.253Z,17.70
2023-03-07T16:16:05.463Z,13.80
2023-03-07T16:18:39.039Z,15.97
2023-03-07T16:21:11.755Z,15.53
2023-03-07T16:23:42.744Z,16.00
2023-03-07T16:26:16.568Z,16.20
2023-03-07T16:28:47.697Z,15.27
2023-03-07T16:31:20.435Z,15.03
2023-03-07T16:34:01.395Z,14.07
2023-03-07T16:36:32.262Z,15.52
2023-03-07T16:39:03.762Z,13.75
2023-03-07T16:41:34.579Z,13.67
2023-03-07T16:44:05.792Z,17.17
2023-03-07T16:46:41.629Z,16.00
2023-03-07T16:49:20.590Z,12.97
2023-03-07T16:52:04.503Z,16.20
2023-03-07T16:54:41.447Z,16.50
2023-03-07T16:57:17.549Z,13.97
2023-03-07T16:59:50.774Z,13.07
2023-03-07T17:02:30.540Z,15.70
2023-03-07T17:05:07.801Z,14.90
2023-03-07T17:07:38.767Z,15.40
2023-03-07T17:10:10.824Z,17.87
2023-03-07T17:12:43.159Z,17.67
2023-03-07T17:15:17.123Z,20.40
2023-03-07T17:17:50.521Z,16.83
2023-03-07T17:20:24.575Z,19.35
2023-03-07T17:22:55.677Z,20.73
2023-03-07T17:25:30.362Z,21.00
2023-03-07T17:28:03.883Z,23.60
2023-03-07T17:30:35.547Z,23.07
2023-03-07T17:33:09.360Z,20.73
2023-03-07T17:35:42.763Z,18.60
2023-03-07T17:38:13.830Z,17.37
2023-03-07T17:40:44.765Z,22.57
2023-03-07T17:43:16.354Z,20.40
2023-03-07T17:45:47.105Z,20.93
2023-03-07T17:48:18.800Z,19.88
2023-03-07T17:50:52.519Z,20.53
2023-03-07T17:53:25.989Z,19.73
2023-03-07T17:55:57.954Z,22.67
2023-03-07T17:58:28.810Z,19.60
2023-03-07T18:00:59.727Z,25.65
2023-03-07T18:03:30.521Z,22.80
2023-03-07T18:06:03.847Z,21.25
2023-03-07T18:08:34.883Z,17.42
2023-03-07T18:11:06.873Z,18.83
2023-03-07T18:13:38.561Z,26.17
2023-03-07T18:16:11.238Z,26.10
2023-03-07T18:18:58.155Z,20.90
2023-03-07T18:21:32.415Z,17.25
2023-03-07T18:24:04.339Z,20.00
2023-03-07T18:26:35.161Z,14.15
2023-03-07T18:29:06.097Z,18.37
2023-03-07T18:31:37.072Z,21.23
2023-03-07T18:34:07.971Z,23.58
2023-03-07T18:37:27.285Z,19.75
2023-03-07T18:39:58.205Z,24.80
2023-03-07T18:42:29.036Z,26.07
2023-03-07T18:44:59.755Z,20.55
2023-03-07T18:47:30.473Z,24.73
2023-03-07T18:50:03.966Z,26.63
2023-03-07T18:52:37.360Z,24.00
2023-03-07T18:55:09.023Z,20.15
2023-03-07T18:57:39.742Z,21.95
2023-03-07T19:00:13.208Z,19.73
2023-03-07T19:02:44.002Z,18.02
2023-03-07T19:05:15.035Z,22.60
2023-03-07T19:07:49.670Z,19.50
2023-03-07T19:10:20.808Z,21.17
2023-03-07T19:12:51.779Z,18.48
2023-03-07T19:15:22.564Z,22.55
2023-03-07T19:17:53.745Z,20.25
2023-03-07T19:20:24.666Z,21.50
2023-03-07T19:23:01.206Z,19.70
2023-03-07T19:25:32.131Z,20.40
2023-03-07T19:28:03.227Z,20.40
2023-03-07T19:30:35.563Z,18.25
2023-03-07T19:33:06.607Z,20.55
2023-03-07T19:35:38.738Z,22.05
2023-03-07T19:38:12.312Z,21.30
2023-03-07T19:40:43.251Z,22.30
2023-03-07T19:43:14.065Z,24.30
2023-03-07T19:45:44.867Z,24.52
2023-03-07T19:48:15.644Z,23.40
2023-03-07T19:50:46.953Z,21.98
2023-03-07T19:53:20.617Z,21.65
2023-03-07T19:55:51.680Z,26.08
2023-03-07T19:58:22.484Z,25.80
2023-03-07T20:00:53.585Z,27.40
2023-03-07T20:03:24.368Z,26.45
2023-03-07T20:05:57.396Z,28.80
2023-03-07T20:08:33.881Z,25.58
2023-03-07T20:11:12.720Z,23.63
2023-03-07T20:13:45.662Z,26.27
2023-03-07T20:16:32.858Z,25.05
2023-03-07T20:19:05.849Z,26.70
2023-03-07T20:21:37.571Z,25.50
2023-03-07T20:24:13.022Z,24.77
2023-03-07T20:26:43.901Z,26.00
2023-03-07T20:29:14.988Z,27.33
2023-03-07T20:31:45.992Z,27.63
2023-03-07T20:34:16.746Z,23.67
2023-03-07T20:36:47.479Z,27.92
2023-03-07T20:39:21.006Z,26.17
2023-03-07T20:41:52.045Z,24.70
2023-03-07T20:44:22.826Z,28.88
2023-03-07T20:46:53.634Z,23.77
2023-03-07T20:49:24.672Z,26.13
2023-03-07T20:51:55.907Z,23.05
2023-03-07T20:54:38.514Z,23.90
2023-03-07T20:57:09.419Z,23.05
2023-03-07T20:59:40.311Z,28.48
2023-03-07T21:02:13.873Z,30.42
2023-03-07T21:04:44.631Z,24.08
2023-03-07T21:07:16.016Z,28.13
2023-03-07T21:09:51.030Z,27.23
2023-03-07T21:12:21.755Z,24.88
2023-03-07T21:14:52.582Z,23.95
2023-03-07T21:17:23.334Z,23.52
2023-03-07T21:19:54.138Z,22.67
2023-03-07T21:22:25.303Z,18.40
2023-03-07T21:24:58.734Z,19.87
2023-03-07T21:27:30.861Z,17.52
2023-03-07T21:30:01.682Z,16.08
2023-03-07T21:32:32.522Z,21.27
2023-03-07T21:35:04.248Z,18.75
2023-03-07T21:37:35.551Z,17.25
2023-03-07T21:40:10.562Z,16.05
2023-03-07T21:42:41.620Z,17.02
2023-03-07T21:45:15.855Z,17.83
2023-03-07T21:47:46.762Z,16.48
2023-03-07T21:50:17.528Z,15.50
2023-03-07T21:52:48.869Z,15.93
2023-03-07T21:55:24.334Z,15.85
2023-03-07T21:57:55.583Z,14.65
2023-03-07T22:00:27.121Z,14.70
2023-03-07T22:02:58.111Z,16.60
2023-03-07T22:05:31.373Z,15.25
2023-03-07T22:08:02.112Z,17.33
2023-03-07T22:10:38.126Z,17.63
2023-03-07T22:13:08.884Z,18.08
2023-03-07T22:15:41.665Z,18.13
2023-03-07T22:18:12.420Z,16.58
2023-03-07T22:23:39.341Z,20.73
2023-03-07T22:26:14.436Z,19.90
2023-03-07T22:28:45.215Z,20.58
2023-03-07T22:31:16.016Z,19.63
2023-03-07T22:33:46.855Z,19.73
2023-03-07T22:36:20.019Z,19.17
2023-03-07T22:38:55.429Z,19.80
2023-03-07T22:41:29.215Z,20.45
2023-03-07T22:44:00.078Z,19.20
2023-03-07T22:46:30.966Z,18.25
2023-03-07T22:49:01.706Z,17.15
2023-03-07T22:51:32.625Z,20.70
2023-03-07T22:54:05.713Z,23.77
2023-03-07T22:56:39.233Z,18.33
2023-03-07T22:59:12.170Z,20.20
2023-03-07T23:01:43.073Z,16.52
2023-03-07T23:04:15.317Z,22.70
2023-03-07T23:06:46.189Z,20.52
2023-03-07T23:09:17.066Z,19.55
2023-03-07T23:11:51.011Z,20.60
2023-03-07T23:14:23.184Z,19.05
2023-03-07T23:16:54.306Z,22.23
2023-03-07T23:19:25.083Z,25.77
2023-03-07T23:21:58.626Z,21.40
2023-03-07T23:24:29.533Z,21.80
2023-03-07T23:27:02.956Z,23.23
2023-03-07T23:29:33.665Z,23.40
2023-03-07T23:32:05.196Z,20.48
2023-03-07T23:34:36.356Z,25.42
2023-03-07T23:37:08.721Z,23.65
2023-03-07T23:39:41.501Z,26.83
2023-03-07T23:42:18.945Z,24.30
2023-03-07T23:44:51.234Z,23.92
2023-03-07T23:47:21.982Z,27.92
2023-03-07T23:49:52.875Z,27.45
2023-03-07T23:52:24.927Z,26.10
2023-03-07T23:54:58.419Z,24.20
2023-03-07T23:57:37.046Z,27.55
